sensor_id;sensor_type;location;lat;lon;timestamp;P1;durP1;ratioP1;P2;durP2;ratioP2
48823;SDS011;34640;53.590;10.054;2022-10-17T00:00:21;10.38;;;3.22;;
48823;SDS011;34640;53.590;10.054;2022-10-17T00:02:55;10.00;;;2.95;;
48823;SDS011;34640;53.590;10.054;2022-10-17T00:05:29;10.55;;;3.10;;
48823;SDS011;34640;53.590;10.054;2022-10-17T00:08:03;7.70;;;2.90;;
48823;SDS011;34640;53.590;10.054;2022-10-17T00:10:37;15.57;;;3.63;;
48823;SDS011;34640;53.590;10.054;2022-10-17T00:13:13;8.15;;;2.85;;
48823;SDS011;34640;53.590;10.054;2022-10-17T00:15:46;13.73;;;3.75;;
48823;SDS011;34640;53.590;10.054;2022-10-17T00:18:20;9.55;;;3.10;;
48823;SDS011;34640;53.590;10.054;2022-10-17T00:20:54;8.60;;;2.80;;
48823;SDS011;34640;53.590;10.054;2022-10-17T00:23:27;11.00;;;3.00;;
48823;SDS011;34640;53.590;10.054;2022-10-17T00:26:02;9.73;;;3.17;;
48823;SDS011;34640;53.590;10.054;2022-10-17T00:28:39;8.80;;;3.28;;
48823;SDS011;34640;53.590;10.054;2022-10-17T00:31:13;7.70;;;3.13;;
48823;SDS011;34640;53.590;10.054;2022-10-17T00:33:47;8.10;;;3.05;;
48823;SDS011;34640;53.590;10.054;2022-10-17T00:36:22;10.00;;;3.17;;
48823;SDS011;34640;53.590;10.054;2022-10-17T00:38:57;6.95;;;3.28;;
48823;SDS011;34640;53.590;10.054;2022-10-17T00:41:31;6.45;;;2.80;;
48823;SDS011;34640;53.590;10.054;2022-10-17T00:47:15;12.15;;;2.58;;
48823;SDS011;34640;53.590;10.054;2022-10-17T00:49:52;5.57;;;2.38;;
48823;SDS011;34640;53.590;10.054;2022-10-17T00:52:26;9.57;;;2.50;;
48823;SDS011;34640;53.590;10.054;2022-10-17T00:55:05;9.45;;;2.67;;
48823;SDS011;34640;53.590;10.054;2022-10-17T00:57:44;14.70;;;2.97;;
48823;SDS011;34640;53.590;10.054;2022-10-17T01:00:18;9.48;;;2.67;;
48823;SDS011;34640;53.590;10.054;2022-10-17T01:02:54;9.38;;;2.28;;
48823;SDS011;34640;53.590;10.054;2022-10-17T01:05:28;6.32;;;2.15;;
48823;SDS011;34640;53.590;10.054;2022-10-17T01:08:01;10.90;;;2.60;;
48823;SDS011;34640;53.590;10.054;2022-10-17T01:10:38;7.68;;;2.33;;
48823;SDS011;34640;53.590;10.054;2022-10-17T01:13:24;7.72;;;2.47;;
48823;SDS011;34640;53.590;10.054;2022-10-17T01:16:05;8.07;;;2.45;;
48823;SDS011;34640;53.590;10.054;2022-10-17T01:18:48;7.22;;;2.65;;
48823;SDS011;34640;53.590;10.054;2022-10-17T01:21:29;7.25;;;2.28;;
48823;SDS011;34640;53.590;10.054;2022-10-17T01:24:20;8.40;;;2.10;;
48823;SDS011;34640;53.590;10.054;2022-10-17T01:27:17;9.55;;;2.35;;
48823;SDS011;34640;53.590;10.054;2022-10-17T01:30:16;11.75;;;1.90;;
48823;SDS011;34640;53.590;10.054;2022-10-17T01:33:26;6.85;;;2.08;;
48823;SDS011;34640;53.590;10.054;2022-10-17T01:36:08;8.32;;;2.22;;
48823;SDS011;34640;53.590;10.054;2022-10-17T01:38:45;7.78;;;2.00;;
48823;SDS011;34640;53.590;10.054;2022-10-17T01:41:23;7.72;;;2.42;;
48823;SDS011;34640;53.590;10.054;2022-10-17T01:44:01;9.57;;;2.42;;
48823;SDS011;34640;53.590;10.054;2022-10-17T01:46:41;7.57;;;2.38;;
48823;SDS011;34640;53.590;10.054;2022-10-17T01:49:21;6.93;;;2.13;;
48823;SDS011;34640;53.590;10.054;2022-10-17T01:51:59;6.45;;;2.25;;
48823;SDS011;34640;53.590;10.054;2022-10-17T01:54:38;9.75;;;2.53;;
48823;SDS011;34640;53.590;10.054;2022-10-17T01:57:19;4.47;;;2.10;;
48823;SDS011;34640;53.590;10.054;2022-10-17T01:59:58;7.63;;;2.38;;
48823;SDS011;34640;53.590;10.054;2022-10-17T02:02:34;7.25;;;2.20;;
48823;SDS011;34640;53.590;10.054;2022-10-17T02:05:11;10.32;;;2.40;;
48823;SDS011;34640;53.590;10.054;2022-10-17T02:07:44;8.57;;;2.28;;
48823;SDS011;34640;53.590;10.054;2022-10-17T02:10:20;7.72;;;2.00;;
48823;SDS011;34640;53.590;10.054;2022-10-17T02:13:04;6.97;;;2.13;;
48823;SDS011;34640;53.590;10.054;2022-10-17T02:15:46;6.90;;;2.28;;
48823;SDS011;34640;53.590;10.054;2022-10-17T02:18:36;7.97;;;1.80;;
48823;SDS011;34640;53.590;10.054;2022-10-17T02:21:25;9.95;;;2.17;;
48823;SDS011;34640;53.590;10.054;2022-10-17T02:24:06;6.25;;;1.80;;
48823;SDS011;34640;53.590;10.054;2022-10-17T02:26:51;8.52;;;1.88;;
48823;SDS011;34640;53.590;10.054;2022-10-17T02:29:33;8.23;;;2.03;;
48823;SDS011;34640;53.590;10.054;2022-10-17T02:32:16;6.50;;;1.85;;
48823;SDS011;34640;53.590;10.054;2022-10-17T02:34:56;6.63;;;1.73;;
48823;SDS011;34640;53.590;10.054;2022-10-17T02:37:35;11.00;;;3.13;;
48823;SDS011;34640;53.590;10.054;2022-10-17T02:40:10;5.63;;;1.80;;
48823;SDS011;34640;53.590;10.054;2022-10-17T02:42:46;2.60;;;1.60;;
48823;SDS011;34640;53.590;10.054;2022-10-17T02:45:22;8.32;;;1.92;;
48823;SDS011;34640;53.590;10.054;2022-10-17T02:48:00;6.13;;;1.70;;
48823;SDS011;34640;53.590;10.054;2022-10-17T02:50:39;5.22;;;2.03;;
48823;SDS011;34640;53.590;10.054;2022-10-17T02:53:24;6.95;;;1.83;;
48823;SDS011;34640;53.590;10.054;2022-10-17T02:56:06;9.07;;;2.17;;
48823;SDS011;34640;53.590;10.054;2022-10-17T02:58:47;5.47;;;1.85;;
48823;SDS011;34640;53.590;10.054;2022-10-17T03:01:24;6.57;;;2.13;;
48823;SDS011;34640;53.590;10.054;2022-10-17T03:04:05;4.20;;;1.95;;
48823;SDS011;34640;53.590;10.054;2022-10-17T03:06:40;10.13;;;2.00;;
48823;SDS011;34640;53.590;10.054;2022-10-17T03:09:15;9.60;;;1.90;;
48823;SDS011;34640;53.590;10.054;2022-10-17T03:11:49;7.05;;;1.77;;
48823;SDS011;34640;53.590;10.054;2022-10-17T03:14:23;6.03;;;1.60;;
48823;SDS011;34640;53.590;10.054;2022-10-17T03:16:56;9.50;;;1.70;;
48823;SDS011;34640;53.590;10.054;2022-10-17T03:19:30;4.85;;;1.50;;
48823;SDS011;34640;53.590;10.054;2022-10-17T03:22:04;5.85;;;2.00;;
48823;SDS011;34640;53.590;10.054;2022-10-17T03:24:39;7.43;;;1.85;;
48823;SDS011;34640;53.590;10.054;2022-10-17T03:27:13;4.65;;;1.80;;
48823;SDS011;34640;53.590;10.054;2022-10-17T03:29:47;3.70;;;1.60;;
48823;SDS011;34640;53.590;10.054;2022-10-17T03:32:20;6.18;;;1.40;;
48823;SDS011;34640;53.590;10.054;2022-10-17T03:34:54;6.03;;;1.70;;
48823;SDS011;34640;53.590;10.054;2022-10-17T03:37:27;3.33;;;1.85;;
48823;SDS011;34640;53.590;10.054;2022-10-17T03:40:04;5.78;;;1.65;;
48823;SDS011;34640;53.590;10.054;2022-10-17T03:42:38;9.27;;;1.70;;
48823;SDS011;34640;53.590;10.054;2022-10-17T03:45:12;4.35;;;2.00;;
48823;SDS011;34640;53.590;10.054;2022-10-17T03:47:46;3.25;;;1.70;;
48823;SDS011;34640;53.590;10.054;2022-10-17T03:50:19;6.95;;;1.58;;
48823;SDS011;34640;53.590;10.054;2022-10-17T03:52:53;9.60;;;1.48;;
48823;SDS011;34640;53.590;10.054;2022-10-17T03:55:28;5.28;;;1.80;;
48823;SDS011;34640;53.590;10.054;2022-10-17T03:58:02;4.40;;;1.45;;
48823;SDS011;34640;53.590;10.054;2022-10-17T04:00:36;5.85;;;1.50;;
48823;SDS011;34640;53.590;10.054;2022-10-17T04:03:09;4.32;;;1.42;;
48823;SDS011;34640;53.590;10.054;2022-10-17T04:08:22;4.22;;;1.55;;
48823;SDS011;34640;53.590;10.054;2022-10-17T04:10:58;5.78;;;1.35;;
48823;SDS011;34640;53.590;10.054;2022-10-17T04:13:33;3.25;;;1.50;;
48823;SDS011;34640;53.590;10.054;2022-10-17T04:16:08;5.05;;;1.63;;
48823;SDS011;34640;53.590;10.054;2022-10-17T04:18:43;3.40;;;1.85;;
48823;SDS011;34640;53.590;10.054;2022-10-17T04:21:17;8.38;;;1.67;;
48823;SDS011;34640;53.590;10.054;2022-10-17T04:23:52;4.50;;;1.60;;
48823;SDS011;34640;53.590;10.054;2022-10-17T04:26:28;3.58;;;1.30;;
48823;SDS011;34640;53.590;10.054;2022-10-17T04:29:02;3.22;;;1.70;;
48823;SDS011;34640;53.590;10.054;2022-10-17T04:31:35;4.10;;;1.70;;
48823;SDS011;34640;53.590;10.054;2022-10-17T04:34:09;5.05;;;1.55;;
48823;SDS011;34640;53.590;10.054;2022-10-17T04:36:45;3.95;;;1.50;;
48823;SDS011;34640;53.590;10.054;2022-10-17T04:39:19;5.28;;;1.65;;
48823;SDS011;34640;53.590;10.054;2022-10-17T04:41:54;7.95;;;2.25;;
48823;SDS011;34640;53.590;10.054;2022-10-17T04:44:28;5.20;;;1.90;;
48823;SDS011;34640;53.590;10.054;2022-10-17T04:47:02;3.70;;;1.50;;
48823;SDS011;34640;53.590;10.054;2022-10-17T04:49:36;6.75;;;1.83;;
48823;SDS011;34640;53.590;10.054;2022-10-17T04:52:10;3.90;;;1.70;;
48823;SDS011;34640;53.590;10.054;2022-10-17T04:54:43;4.95;;;2.10;;
48823;SDS011;34640;53.590;10.054;2022-10-17T04:57:18;4.82;;;1.45;;
48823;SDS011;34640;53.590;10.054;2022-10-17T04:59:52;4.90;;;1.50;;
48823;SDS011;34640;53.590;10.054;2022-10-17T05:02:26;4.30;;;1.70;;
48823;SDS011;34640;53.590;10.054;2022-10-17T05:05:00;2.45;;;1.58;;
48823;SDS011;34640;53.590;10.054;2022-10-17T05:07:34;4.20;;;1.58;;
48823;SDS011;34640;53.590;10.054;2022-10-17T05:10:11;5.53;;;1.70;;
48823;SDS011;34640;53.590;10.054;2022-10-17T05:12:47;4.65;;;1.75;;
48823;SDS011;34640;53.590;10.054;2022-10-17T05:15:21;5.65;;;2.72;;
48823;SDS011;34640;53.590;10.054;2022-10-17T05:17:55;8.77;;;3.08;;
48823;SDS011;34640;53.590;10.054;2022-10-17T05:20:29;4.30;;;2.03;;
48823;SDS011;34640;53.590;10.054;2022-10-17T05:23:03;3.15;;;1.52;;
48823;SDS011;34640;53.590;10.054;2022-10-17T05:25:36;5.97;;;2.20;;
48823;SDS011;34640;53.590;10.054;2022-10-17T05:28:12;5.82;;;1.65;;
48823;SDS011;34640;53.590;10.054;2022-10-17T05:30:45;4.35;;;3.03;;
48823;SDS011;34640;53.590;10.054;2022-10-17T05:33:19;5.65;;;2.58;;
48823;SDS011;34640;53.590;10.054;2022-10-17T05:35:54;7.45;;;2.35;;
48823;SDS011;34640;53.590;10.054;2022-10-17T05:38:28;7.05;;;2.40;;
48823;SDS011;34640;53.590;10.054;2022-10-17T05:41:03;5.72;;;2.33;;
48823;SDS011;34640;53.590;10.054;2022-10-17T05:43:39;5.25;;;2.10;;
48823;SDS011;34640;53.590;10.054;2022-10-17T05:46:13;7.90;;;2.25;;
48823;SDS011;34640;53.590;10.054;2022-10-17T05:48:47;6.10;;;2.28;;
48823;SDS011;34640;53.590;10.054;2022-10-17T05:51:20;7.55;;;2.42;;
48823;SDS011;34640;53.590;10.054;2022-10-17T05:53:54;9.55;;;2.20;;
48823;SDS011;34640;53.590;10.054;2022-10-17T05:56:27;3.80;;;2.20;;
48823;SDS011;34640;53.590;10.054;2022-10-17T05:59:03;5.75;;;2.22;;
48823;SDS011;34640;53.590;10.054;2022-10-17T06:01:37;6.40;;;2.22;;
48823;SDS011;34640;53.590;10.054;2022-10-17T06:04:11;5.85;;;1.85;;
48823;SDS011;34640;53.590;10.054;2022-10-17T06:06:45;9.55;;;2.83;;
48823;SDS011;34640;53.590;10.054;2022-10-17T06:09:19;4.80;;;2.33;;
48823;SDS011;34640;53.590;10.054;2022-10-17T06:11:52;6.20;;;2.30;;
48823;SDS011;34640;53.590;10.054;2022-10-17T06:14:28;5.63;;;2.60;;
48823;SDS011;34640;53.590;10.054;2022-10-17T06:17:01;13.40;;;3.58;;
48823;SDS011;34640;53.590;10.054;2022-10-17T06:19:35;8.82;;;3.17;;
48823;SDS011;34640;53.590;10.054;2022-10-17T06:22:09;7.00;;;2.40;;
48823;SDS011;34640;53.590;10.054;2022-10-17T06:24:43;6.95;;;2.72;;
48823;SDS011;34640;53.590;10.054;2022-10-17T06:27:16;7.85;;;2.80;;
48823;SDS011;34640;53.590;10.054;2022-10-17T06:29:52;5.13;;;2.58;;
48823;SDS011;34640;53.590;10.054;2022-10-17T06:32:25;7.47;;;2.65;;
48823;SDS011;34640;53.590;10.054;2022-10-17T06:34:59;5.50;;;2.53;;
48823;SDS011;34640;53.590;10.054;2022-10-17T06:37:33;6.88;;;2.65;;
48823;SDS011;34640;53.590;10.054;2022-10-17T06:40:09;6.45;;;2.35;;
48823;SDS011;34640;53.590;10.054;2022-10-17T06:42:46;5.05;;;2.28;;
48823;SDS011;34640;53.590;10.054;2022-10-17T06:45:21;4.00;;;2.47;;
48823;SDS011;34640;53.590;10.054;2022-10-17T06:47:54;4.75;;;2.40;;
48823;SDS011;34640;53.590;10.054;2022-10-17T06:50:28;6.97;;;2.50;;
48823;SDS011;34640;53.590;10.054;2022-10-17T06:53:02;7.60;;;2.33;;
48823;SDS011;34640;53.590;10.054;2022-10-17T06:55:36;3.90;;;2.17;;
48823;SDS011;34640;53.590;10.054;2022-10-17T06:58:09;4.00;;;1.95;;
48823;SDS011;34640;53.590;10.054;2022-10-17T07:00:44;5.57;;;2.30;;
48823;SDS011;34640;53.590;10.054;2022-10-17T07:03:18;4.90;;;2.38;;
48823;SDS011;34640;53.590;10.054;2022-10-17T07:05:52;5.05;;;2.25;;
48823;SDS011;34640;53.590;10.054;2022-10-17T07:08:26;4.78;;;2.58;;
48823;SDS011;34640;53.590;10.054;2022-10-17T07:11:07;7.35;;;2.58;;
48823;SDS011;34640;53.590;10.054;2022-10-17T07:13:41;4.05;;;2.08;;
48823;SDS011;34640;53.590;10.054;2022-10-17T07:16:17;5.53;;;2.40;;
48823;SDS011;34640;53.590;10.054;2022-10-17T07:18:52;3.97;;;2.03;;
48823;SDS011;34640;53.590;10.054;2022-10-17T07:21:26;4.65;;;2.50;;
48823;SDS011;34640;53.590;10.054;2022-10-17T07:24:00;3.92;;;2.10;;
48823;SDS011;34640;53.590;10.054;2022-10-17T07:26:34;5.32;;;2.20;;
48823;SDS011;34640;53.590;10.054;2022-10-17T07:29:08;8.77;;;2.55;;
48823;SDS011;34640;53.590;10.054;2022-10-17T07:31:44;5.00;;;2.28;;
48823;SDS011;34640;53.590;10.054;2022-10-17T07:34:19;7.15;;;2.08;;
48823;SDS011;34640;53.590;10.054;2022-10-17T07:36:53;5.35;;;2.53;;
48823;SDS011;34640;53.590;10.054;2022-10-17T07:39:27;5.65;;;2.00;;
48823;SDS011;34640;53.590;10.054;2022-10-17T07:42:01;4.65;;;2.20;;
48823;SDS011;34640;53.590;10.054;2022-10-17T07:44:35;4.20;;;2.03;;
48823;SDS011;34640;53.590;10.054;2022-10-17T07:47:10;8.00;;;2.50;;
48823;SDS011;34640;53.590;10.054;2022-10-17T07:49:43;11.38;;;2.50;;
48823;SDS011;34640;53.590;10.054;2022-10-17T07:52:17;7.18;;;2.30;;
48823;SDS011;34640;53.590;10.054;2022-10-17T07:54:51;10.18;;;2.60;;
48823;SDS011;34640;53.590;10.054;2022-10-17T07:57:24;8.70;;;2.42;;
48823;SDS011;34640;53.590;10.054;2022-10-17T07:59:58;5.22;;;2.25;;
48823;SDS011;34640;53.590;10.054;2022-10-17T08:02:33;9.85;;;2.40;;
48823;SDS011;34640;53.590;10.054;2022-10-17T08:05:07;4.20;;;2.20;;
48823;SDS011;34640;53.590;10.054;2022-10-17T08:07:42;4.38;;;2.60;;
48823;SDS011;34640;53.590;10.054;2022-10-17T08:10:15;6.05;;;2.15;;
48823;SDS011;34640;53.590;10.054;2022-10-17T08:12:50;7.47;;;2.45;;
48823;SDS011;34640;53.590;10.054;2022-10-17T08:15:23;5.05;;;2.00;;
48823;SDS011;34640;53.590;10.054;2022-10-17T08:18:04;6.60;;;2.38;;
48823;SDS011;34640;53.590;10.054;2022-10-17T08:20:38;10.20;;;3.15;;
48823;SDS011;34640;53.590;10.054;2022-10-17T08:23:12;9.68;;;2.40;;
48823;SDS011;34640;53.590;10.054;2022-10-17T08:25:45;8.57;;;2.45;;
48823;SDS011;34640;53.590;10.054;2022-10-17T08:28:19;7.93;;;2.38;;
48823;SDS011;34640;53.590;10.054;2022-10-17T08:30:52;5.15;;;2.33;;
48823;SDS011;34640;53.590;10.054;2022-10-17T08:33:35;5.22;;;2.28;;
48823;SDS011;34640;53.590;10.054;2022-10-17T08:36:09;8.27;;;2.53;;
48823;SDS011;34640;53.590;10.054;2022-10-17T08:38:45;6.93;;;2.28;;
48823;SDS011;34640;53.590;10.054;2022-10-17T08:41:30;6.90;;;2.50;;
48823;SDS011;34640;53.590;10.054;2022-10-17T08:46:54;9.80;;;2.50;;
48823;SDS011;34640;53.590;10.054;2022-10-17T08:49:35;5.82;;;2.53;;
48823;SDS011;34640;53.590;10.054;2022-10-17T08:52:20;5.95;;;2.67;;
48823;SDS011;34640;53.590;10.054;2022-10-17T08:55:10;8.45;;;2.58;;
48823;SDS011;34640;53.590;10.054;2022-10-17T08:57:47;8.43;;;2.85;;
48823;SDS011;34640;53.590;10.054;2022-10-17T09:00:21;7.45;;;2.53;;
48823;SDS011;34640;53.590;10.054;2022-10-17T09:03:00;6.57;;;2.47;;
48823;SDS011;34640;53.590;10.054;2022-10-17T09:05:47;5.82;;;2.80;;
48823;SDS011;34640;53.590;10.054;2022-10-17T09:08:28;8.70;;;2.80;;
48823;SDS011;34640;53.590;10.054;2022-10-17T09:11:12;6.10;;;2.72;;
48823;SDS011;34640;53.590;10.054;2022-10-17T09:14:00;8.85;;;2.50;;
48823;SDS011;34640;53.590;10.054;2022-10-17T09:16:47;9.23;;;2.55;;
48823;SDS011;34640;53.590;10.054;2022-10-17T09:19:29;8.10;;;3.20;;
48823;SDS011;34640;53.590;10.054;2022-10-17T09:22:09;5.93;;;2.63;;
48823;SDS011;34640;53.590;10.054;2022-10-17T09:24:48;5.03;;;2.35;;
48823;SDS011;34640;53.590;10.054;2022-10-17T09:27:31;6.22;;;2.92;;
48823;SDS011;34640;53.590;10.054;2022-10-17T09:30:29;17.67;;;7.07;;
48823;SDS011;34640;53.590;10.054;2022-10-17T09:33:24;11.52;;;3.00;;
48823;SDS011;34640;53.590;10.054;2022-10-17T09:36:21;7.30;;;2.97;;
48823;SDS011;34640;53.590;10.054;2022-10-17T09:39:00;5.57;;;2.42;;
48823;SDS011;34640;53.590;10.054;2022-10-17T09:41:38;6.90;;;2.92;;
48823;SDS011;34640;53.590;10.054;2022-10-17T09:44:18;8.23;;;3.05;;
48823;SDS011;34640;53.590;10.054;2022-10-17T09:47:10;6.15;;;2.65;;
48823;SDS011;34640;53.590;10.054;2022-10-17T09:49:58;11.55;;;2.60;;
48823;SDS011;34640;53.590;10.054;2022-10-17T09:52:32;6.95;;;2.80;;
48823;SDS011;34640;53.590;10.054;2022-10-17T09:55:14;15.25;;;3.45;;
48823;SDS011;34640;53.590;10.054;2022-10-17T09:57:51;7.28;;;2.78;;
48823;SDS011;34640;53.590;10.054;2022-10-17T10:00:28;9.57;;;2.35;;
48823;SDS011;34640;53.590;10.054;2022-10-17T10:03:11;6.40;;;2.80;;
48823;SDS011;34640;53.590;10.054;2022-10-17T10:05:57;6.13;;;2.80;;
48823;SDS011;34640;53.590;10.054;2022-10-17T10:08:33;6.78;;;2.90;;
48823;SDS011;34640;53.590;10.054;2022-10-17T10:11:10;5.57;;;2.53;;
48823;SDS011;34640;53.590;10.054;2022-10-17T10:13:47;7.38;;;2.67;;
48823;SDS011;34640;53.590;10.054;2022-10-17T10:16:22;7.15;;;2.70;;
48823;SDS011;34640;53.590;10.054;2022-10-17T10:19:02;5.72;;;2.75;;
48823;SDS011;34640;53.590;10.054;2022-10-17T10:21:54;5.60;;;2.50;;
48823;SDS011;34640;53.590;10.054;2022-10-17T10:24:29;6.43;;;2.45;;
48823;SDS011;34640;53.590;10.054;2022-10-17T10:27:05;8.98;;;2.90;;
48823;SDS011;34640;53.590;10.054;2022-10-17T10:29:47;8.10;;;2.30;;
48823;SDS011;34640;53.590;10.054;2022-10-17T10:32:23;13.02;;;3.20;;
48823;SDS011;34640;53.590;10.054;2022-10-17T10:35:00;9.00;;;2.53;;
48823;SDS011;34640;53.590;10.054;2022-10-17T10:37:38;7.32;;;3.05;;
48823;SDS011;34640;53.590;10.054;2022-10-17T10:40:16;7.00;;;2.65;;
48823;SDS011;34640;53.590;10.054;2022-10-17T10:42:54;9.13;;;2.83;;
48823;SDS011;34640;53.590;10.054;2022-10-17T10:45:40;6.88;;;2.97;;
48823;SDS011;34640;53.590;10.054;2022-10-17T10:48:20;10.75;;;3.15;;
48823;SDS011;34640;53.590;10.054;2022-10-17T10:50:55;9.07;;;2.42;;
48823;SDS011;34640;53.590;10.054;2022-10-17T10:53:33;6.47;;;2.35;;
48823;SDS011;34640;53.590;10.054;2022-10-17T10:56:15;5.60;;;2.47;;
48823;SDS011;34640;53.590;10.054;2022-10-17T10:58:54;10.52;;;2.85;;
48823;SDS011;34640;53.590;10.054;2022-10-17T11:01:32;4.57;;;2.45;;
48823;SDS011;34640;53.590;10.054;2022-10-17T11:04:16;11.68;;;3.38;;
48823;SDS011;34640;53.590;10.054;2022-10-17T11:06:57;8.00;;;3.20;;
48823;SDS011;34640;53.590;10.054;2022-10-17T11:09:39;7.80;;;3.30;;
48823;SDS011;34640;53.590;10.054;2022-10-17T11:12:19;8.52;;;2.75;;
48823;SDS011;34640;53.590;10.054;2022-10-17T11:15:00;8.65;;;3.00;;
48823;SDS011;34640;53.590;10.054;2022-10-17T11:17:41;10.27;;;3.22;;
48823;SDS011;34640;53.590;10.054;2022-10-17T11:20:24;14.75;;;3.95;;
48823;SDS011;34640;53.590;10.054;2022-10-17T11:23:11;12.40;;;3.72;;
48823;SDS011;34640;53.590;10.054;2022-10-17T11:25:52;8.57;;;3.00;;
48823;SDS011;34640;53.590;10.054;2022-10-17T11:28:29;8.77;;;3.58;;
48823;SDS011;34640;53.590;10.054;2022-10-17T11:31:05;7.45;;;3.50;;
48823;SDS011;34640;53.590;10.054;2022-10-17T11:33:44;7.90;;;3.03;;
48823;SDS011;34640;53.590;10.054;2022-10-17T11:36:20;7.72;;;3.28;;
48823;SDS011;34640;53.590;10.054;2022-10-17T11:38:59;9.60;;;3.47;;
48823;SDS011;34640;53.590;10.054;2022-10-17T11:41:38;8.40;;;3.30;;
48823;SDS011;34640;53.590;10.054;2022-10-17T11:44:18;12.40;;;3.10;;
48823;SDS011;34640;53.590;10.054;2022-10-17T11:49:33;10.30;;;3.22;;
48823;SDS011;34640;53.590;10.054;2022-10-17T11:52:16;9.90;;;2.90;;
48823;SDS011;34640;53.590;10.054;2022-10-17T11:55:19;8.35;;;2.80;;
48823;SDS011;34640;53.590;10.054;2022-10-17T11:57:58;9.77;;;3.13;;
48823;SDS011;34640;53.590;10.054;2022-10-17T12:00:51;11.70;;;3.25;;
48823;SDS011;34640;53.590;10.054;2022-10-17T12:03:37;7.88;;;3.47;;
48823;SDS011;34640;53.590;10.054;2022-10-17T12:06:19;10.00;;;3.35;;
48823;SDS011;34640;53.590;10.054;2022-10-17T12:09:06;8.18;;;3.30;;
48823;SDS011;34640;53.590;10.054;2022-10-17T12:11:44;16.23;;;4.90;;
48823;SDS011;34640;53.590;10.054;2022-10-17T12:14:41;11.55;;;4.28;;
48823;SDS011;34640;53.590;10.054;2022-10-17T12:20:26;8.68;;;3.97;;
48823;SDS011;34640;53.590;10.054;2022-10-17T12:23:17;8.25;;;3.90;;
48823;SDS011;34640;53.590;10.054;2022-10-17T12:26:01;7.47;;;3.65;;
48823;SDS011;34640;53.590;10.054;2022-10-17T12:28:40;10.38;;;4.68;;
48823;SDS011;34640;53.590;10.054;2022-10-17T12:31:20;14.68;;;4.03;;
48823;SDS011;34640;53.590;10.054;2022-10-17T12:34:04;11.50;;;4.80;;
48823;SDS011;34640;53.590;10.054;2022-10-17T12:36:39;8.02;;;4.38;;
48823;SDS011;34640;53.590;10.054;2022-10-17T12:52:05;13.27;;;5.07;;
48823;SDS011;34640;53.590;10.054;2022-10-17T12:54:56;10.23;;;4.18;;
48823;SDS011;34640;53.590;10.054;2022-10-17T12:57:52;8.38;;;4.88;;
48823;SDS011;34640;53.590;10.054;2022-10-17T13:00:31;6.85;;;4.18;;
48823;SDS011;34640;53.590;10.054;2022-10-17T13:03:09;12.10;;;4.60;;
48823;SDS011;34640;53.590;10.054;2022-10-17T13:05:47;11.48;;;4.05;;
48823;SDS011;34640;53.590;10.054;2022-10-17T13:08:24;11.13;;;4.40;;
48823;SDS011;34640;53.590;10.054;2022-10-17T13:11:02;10.45;;;4.38;;
48823;SDS011;34640;53.590;10.054;2022-10-17T13:13:37;8.93;;;4.60;;
48823;SDS011;34640;53.590;10.054;2022-10-17T13:16:26;12.88;;;4.93;;
48823;SDS011;34640;53.590;10.054;2022-10-17T13:19:01;10.20;;;5.10;;
48823;SDS011;34640;53.590;10.054;2022-10-17T13:21:36;8.75;;;5.50;;
48823;SDS011;34640;53.590;10.054;2022-10-17T13:24:21;18.27;;;6.43;;
48823;SDS011;34640;53.590;10.054;2022-10-17T13:27:00;13.00;;;5.55;;
48823;SDS011;34640;53.590;10.054;2022-10-17T13:29:35;19.60;;;6.35;;
48823;SDS011;34640;53.590;10.054;2022-10-17T13:32:16;15.35;;;6.30;;
48823;SDS011;34640;53.590;10.054;2022-10-17T13:35:07;13.63;;;6.18;;
48823;SDS011;34640;53.590;10.054;2022-10-17T13:37:43;18.08;;;7.05;;
48823;SDS011;34640;53.590;10.054;2022-10-17T13:40:26;13.23;;;7.63;;
48823;SDS011;34640;53.590;10.054;2022-10-17T13:43:20;12.68;;;7.20;;
48823;SDS011;34640;53.590;10.054;2022-10-17T13:45:57;12.85;;;6.82;;
48823;SDS011;34640;53.590;10.054;2022-10-17T13:48:57;13.48;;;6.60;;
48823;SDS011;34640;53.590;10.054;2022-10-17T13:51:32;15.93;;;7.57;;
48823;SDS011;34640;53.590;10.054;2022-10-17T13:54:15;15.00;;;6.65;;
48823;SDS011;34640;53.590;10.054;2022-10-17T13:56:55;18.23;;;7.07;;
48823;SDS011;34640;53.590;10.054;2022-10-17T13:59:31;11.57;;;6.93;;
48823;SDS011;34640;53.590;10.054;2022-10-17T14:02:12;18.60;;;8.30;;
48823;SDS011;34640;53.590;10.054;2022-10-17T14:04:58;15.35;;;7.85;;
48823;SDS011;34640;53.590;10.054;2022-10-17T14:07:51;14.05;;;7.90;;
48823;SDS011;34640;53.590;10.054;2022-10-17T14:10:47;13.27;;;7.60;;
48823;SDS011;34640;53.590;10.054;2022-10-17T14:13:22;14.45;;;8.00;;
48823;SDS011;34640;53.590;10.054;2022-10-17T14:16:01;13.13;;;7.75;;
48823;SDS011;34640;53.590;10.054;2022-10-17T14:18:36;18.70;;;8.32;;
48823;SDS011;34640;53.590;10.054;2022-10-17T14:21:14;19.48;;;7.75;;
48823;SDS011;34640;53.590;10.054;2022-10-17T14:24:21;14.55;;;8.60;;
48823;SDS011;34640;53.590;10.054;2022-10-17T14:27:23;17.67;;;7.68;;
48823;SDS011;34640;53.590;10.054;2022-10-17T14:30:00;15.10;;;7.55;;
48823;SDS011;34640;53.590;10.054;2022-10-17T14:32:35;15.38;;;7.90;;
48823;SDS011;34640;53.590;10.054;2022-10-17T14:35:15;20.70;;;8.45;;
48823;SDS011;34640;53.590;10.054;2022-10-17T14:38:11;15.07;;;7.30;;
48823;SDS011;34640;53.590;10.054;2022-10-17T14:40:50;15.57;;;8.02;;
48823;SDS011;34640;53.590;10.054;2022-10-17T14:43:41;16.42;;;7.38;;
48823;SDS011;34640;53.590;10.054;2022-10-17T14:46:16;11.88;;;7.38;;
48823;SDS011;34640;53.590;10.054;2022-10-17T14:48:51;14.88;;;7.75;;
48823;SDS011;34640;53.590;10.054;2022-10-17T14:51:26;14.60;;;7.97;;
48823;SDS011;34640;53.590;10.054;2022-10-17T14:54:18;15.95;;;7.30;;
48823;SDS011;34640;53.590;10.054;2022-10-17T14:56:54;16.40;;;8.65;;
48823;SDS011;34640;53.590;10.054;2022-10-17T14:59:28;14.43;;;8.05;;
48823;SDS011;34640;53.590;10.054;2022-10-17T15:02:27;17.75;;;8.15;;
48823;SDS011;34640;53.590;10.054;2022-10-17T15:05:03;15.75;;;9.60;;
48823;SDS011;34640;53.590;10.054;2022-10-17T15:07:44;14.68;;;7.80;;
48823;SDS011;34640;53.590;10.054;2022-10-17T15:10:30;12.48;;;7.57;;
48823;SDS011;34640;53.590;10.054;2022-10-17T15:13:06;12.93;;;7.05;;
48823;SDS011;34640;53.590;10.054;2022-10-17T15:15:59;14.73;;;7.00;;
48823;SDS011;34640;53.590;10.054;2022-10-17T15:18:34;17.08;;;8.10;;
48823;SDS011;34640;53.590;10.054;2022-10-17T15:21:10;17.83;;;8.07;;
48823;SDS011;34640;53.590;10.054;2022-10-17T15:24:05;14.05;;;8.02;;
48823;SDS011;34640;53.590;10.054;2022-10-17T15:26:39;14.80;;;7.72;;
48823;SDS011;34640;53.590;10.054;2022-10-17T15:29:13;16.05;;;7.97;;
48823;SDS011;34640;53.590;10.054;2022-10-17T15:31:48;10.82;;;7.60;;
48823;SDS011;34640;53.590;10.054;2022-10-17T15:34:23;17.45;;;8.48;;
48823;SDS011;34640;53.590;10.054;2022-10-17T15:36:56;14.32;;;8.25;;
48823;SDS011;34640;53.590;10.054;2022-10-17T15:39:30;16.30;;;9.70;;
48823;SDS011;34640;53.590;10.054;2022-10-17T15:42:06;12.80;;;8.35;;
48823;SDS011;34640;53.590;10.054;2022-10-17T15:44:41;19.30;;;8.95;;
48823;SDS011;34640;53.590;10.054;2022-10-17T15:47:21;14.45;;;8.45;;
48823;SDS011;34640;53.590;10.054;2022-10-17T15:49:58;11.85;;;8.10;;
48823;SDS011;34640;53.590;10.054;2022-10-17T15:52:33;13.88;;;8.60;;
48823;SDS011;34640;53.590;10.054;2022-10-17T15:55:07;15.73;;;8.07;;
48823;SDS011;34640;53.590;10.054;2022-10-17T15:57:42;14.25;;;8.68;;
48823;SDS011;34640;53.590;10.054;2022-10-17T16:00:19;12.35;;;8.30;;
48823;SDS011;34640;53.590;10.054;2022-10-17T16:02:54;12.85;;;8.10;;